Time;durP1;ratioP1;P1;durP2;ratioP2;P2;SDS_P1;SDS_P2;PMS_P1;PMS_P2;Temp;Humidity;BMP_temperature;BMP_pressure;BME280_temperature;BME280_humidity;BME280_pressure;Samples;Min_cycle;Max_cycle;Signal;HPM_P1;HPM_P2
2021/03/16 00:00:22;;;;;;;1999.90;999.90;;;;;;;;;;5066468;28;20035;-74
2021/03/16 00:03:06;;;;;;;1999.90;999.90;;;;;;;;;;5063849;28;20118;-74
2021/03/16 00:05:37;;;;;;;1999.90;999.90;;;;;;;;;;5064680;28;20088;-74
2021/03/16 00:08:03;;;;;;;1999.90;999.90;;;;;;;;;;5063467;28;20056;-74
2021/03/16 00:10:28;;;;;;;1999.90;999.90;;;;;;;;;;5060761;28;20039;-74
2021/03/16 00:12:53;;;;;;;1999.90;999.90;;;;;;;;;;5067596;28;20064;-74
2021/03/16 00:15:19;;;;;;;254.30;230.52;;;;;;;;;;5066135;28;20024;-74
2021/03/16 00:17:44;;;;;;;290.92;265.17;;;;;;;;;;5065928;28;20040;-74
2021/03/16 00:20:10;;;;;;;264.60;240.98;;;;;;;;;;5066961;28;20025;-74
2021/03/16 00:22:35;;;;;;;1563.05;807.42;;;;;;;;;;5064756;28;20033;-74
2021/03/16 00:25:01;;;;;;;261.67;238.10;;;;;;;;;;5064653;28;20055;-75
2021/03/16 00:27:26;;;;;;;263.55;240.00;;;;;;;;;;5055028;28;20503;-74
2021/03/16 00:29:52;;;;;;;228.13;207.77;;;;;;;;;;5062564;28;20040;-74
2021/03/16 00:32:17;;;;;;;264.23;240.43;;;;;;;;;;5065347;28;20060;-74
2021/03/16 00:34:42;;;;;;;1999.90;999.90;;;;;;;;;;5064594;28;20059;-74
2021/03/16 00:37:08;;;;;;;264.42;240.32;;;;;;;;;;5058292;28;20443;-75
2021/03/16 00:39:34;;;;;;;256.75;233.32;;;;;;;;;;5060603;28;20445;-74
2021/03/16 00:41:59;;;;;;;1141.38;628.65;;;;;;;;;;5063078;28;20021;-74
2021/03/16 00:44:25;;;;;;;253.07;228.98;;;;;;;;;;5065108;28;20067;-74
2021/03/16 00:46:50;;;;;;;257.45;233.60;;;;;;;;;;5061325;28;20067;-74
2021/03/16 00:49:16;;;;;;;256.90;233.20;;;;;;;;;;5058609;28;20025;-74
2021/03/16 00:51:41;;;;;;;261.40;237.27;;;;;;;;;;5060454;28;20112;-75
2021/03/16 00:54:07;;;;;;;252.90;229.32;;;;;;;;;;5066742;28;20468;-74
2021/03/16 00:56:32;;;;;;;244.27;222.07;;;;;;;;;;5063351;28;20039;-74
2021/03/16 00:58:58;;;;;;;237.23;215.75;;;;;;;;;;5059586;28;20581;-74
2021/03/16 01:01:23;;;;;;;259.05;235.77;;;;;;;;;;5054753;28;20045;-74
2021/03/16 01:03:49;;;;;;;240.02;219.02;;;;;;;;;;5063917;28;20039;-74
2021/03/16 01:06:14;;;;;;;228.70;208.13;;;;;;;;;;5058920;28;20076;-74
2021/03/16 01:08:39;;;;;;;217.93;197.95;;;;;;;;;;5057648;28;20024;-74
2021/03/16 01:11:05;;;;;;;219.30;198.95;;;;;;;;;;5053412;28;20404;-74
2021/03/16 01:13:31;;;;;;;224.20;203.65;;;;;;;;;;5057932;28;20067;-74
2021/03/16 01:15:57;;;;;;;227.82;206.93;;;;;;;;;;5061654;28;20032;-74
2021/03/16 01:18:22;;;;;;;235.13;213.77;;;;;;;;;;5064435;28;20484;-74
2021/03/16 01:20:48;;;;;;;230.88;209.68;;;;;;;;;;5065933;28;20444;-74
2021/03/16 01:23:13;;;;;;;226.82;206.38;;;;;;;;;;5065627;28;20037;-74
2021/03/16 01:25:38;;;;;;;231.38;210.50;;;;;;;;;;5064943;28;20492;-74
2021/03/16 01:28:05;;;;;;;230.13;209.45;;;;;;;;;;5065956;28;20056;-74
2021/03/16 01:30:30;;;;;;;224.35;203.93;;;;;;;;;;5064379;28;20028;-74
2021/03/16 01:32:56;;;;;;;235.63;214.15;;;;;;;;;;5062028;28;20078;-75
2021/03/16 01:35:22;;;;;;;244.80;222.38;;;;;;;;;;5061084;28;20051;-74
2021/03/16 01:37:53;;;;;;;237.32;215.65;;;;;;;;;;5059965;28;20116;-74
2021/03/16 01:40:21;;;;;;;240.80;218.95;;;;;;;;;;5065320;28;20029;-74
2021/03/16 01:42:47;;;;;;;237.25;215.63;;;;;;;;;;5065135;28;20017;-74
2021/03/16 01:45:13;;;;;;;235.80;214.55;;;;;;;;;;5066191;28;20032;-74
2021/03/16 01:47:48;;;;;;;230.30;209.38;;;;;;;;;;5064703;28;20021;-74
2021/03/16 01:50:18;;;;;;;307.45;280.85;;;;;;;;;;5059923;28;20067;-74
2021/03/16 01:52:44;;;;;;;250.80;228.55;;;;;;;;;;5064655;28;20029;-74
2021/03/16 01:55:10;;;;;;;227.45;206.73;;;;;;;;;;5065569;28;20450;-74
2021/03/16 01:57:36;;;;;;;239.30;217.15;;;;;;;;;;5063698;28;20029;-74
2021/03/16 02:00:20;;;;;;;230.88;209.73;;;;;;;;;;5064228;28;20388;-74
2021/03/16 02:03:06;;;;;;;262.55;239.48;;;;;;;;;;5061587;28;20134;-74
2021/03/16 02:05:50;;;;;;;281.50;257.35;;;;;;;;;;5060472;28;20058;-74
2021/03/16 02:08:35;;;;;;;236.48;215.25;;;;;;;;;;5063669;28;20043;-74
2021/03/16 02:11:26;;;;;;;244.93;222.60;;;;;;;;;;5064385;28;20059;-74
2021/03/16 02:14:17;;;;;;;248.75;226.02;;;;;;;;;;5062153;28;20086;-74
2021/03/16 02:17:08;;;;;;;272.48;248.48;;;;;;;;;;5061144;28;20064;-74
2021/03/16 02:20:11;;;;;;;271.05;246.98;;;;;;;;;;5065761;28;20051;-74
2021/03/16 02:22:56;;;;;;;268.80;244.73;;;;;;;;;;5060230;28;20154;-74
2021/03/16 02:25:59;;;;;;;265.30;240.50;;;;;;;;;;5064436;28;20087;-74
2021/03/16 02:28:55;;;;;;;270.48;245.75;;;;;;;;;;5058412;28;20044;-74
2021/03/16 02:31:40;;;;;;;255.57;231.40;;;;;;;;;;5058995;28;20039;-74
2021/03/16 02:34:24;;;;;;;270.80;245.65;;;;;;;;;;5058356;28;20099;-74
2021/03/16 02:37:10;;;;;;;264.38;239.88;;;;;;;;;;5057132;28;20106;-74
2021/03/16 02:39:54;;;;;;;254.70;230.53;;;;;;;;;;5051937;28;20044;-74
2021/03/16 02:42:38;;;;;;;257.48;234.18;;;;;;;;;;5063208;28;20830;-74
2021/03/16 02:45:22;;;;;;;252.90;229.38;;;;;;;;;;5063734;28;20056;-74
2021/03/16 02:48:08;;;;;;;253.55;230.50;;;;;;;;;;5055678;28;20089;-74
2021/03/16 02:50:52;;;;;;;246.27;224.23;;;;;;;;;;5065413;28;20067;-74
2021/03/16 02:53:37;;;;;;;247.57;225.05;;;;;;;;;;5063831;28;20047;-74
2021/03/16 02:56:22;;;;;;;231.93;211.57;;;;;;;;;;5067759;28;20131;-74
2021/03/16 02:59:08;;;;;;;248.27;226.90;;;;;;;;;;5065596;28;20556;-74
2021/03/16 03:01:53;;;;;;;209.77;190.07;;;;;;;;;;5063992;28;20141;-74
2021/03/16 03:04:39;;;;;;;215.63;196.57;;;;;;;;;;5063060;28;20089;-74
2021/03/16 03:07:24;;;;;;;217.43;198.07;;;;;;;;;;5061890;28;20535;-74
2021/03/16 03:10:08;;;;;;;210.45;191.48;;;;;;;;;;5065563;28;20540;-74
2021/03/16 03:12:53;;;;;;;214.70;195.35;;;;;;;;;;5069071;28;20078;-74
2021/03/16 03:15:36;;;;;;;213.27;193.90;;;;;;;;;;5067272;28;20519;-74
2021/03/16 03:18:20;;;;;;;209.57;190.52;;;;;;;;;;5067130;28;20035;-74
2021/03/16 03:21:09;;;;;;;215.70;196.18;;;;;;;;;;5064967;28;20573;-74
2021/03/16 03:23:56;;;;;;;218.90;199.43;;;;;;;;;;5068808;28;20055;-74
2021/03/16 03:26:46;;;;;;;209.57;190.45;;;;;;;;;;5062662;28;20044;-74
2021/03/16 03:29:31;;;;;;;216.13;196.77;;;;;;;;;;5065979;28;20089;-74
2021/03/16 03:32:16;;;;;;;210.48;191.23;;;;;;;;;;5068161;28;20075;-74
2021/03/16 03:35:01;;;;;;;201.90;183.38;;;;;;;;;;5060285;28;20498;-74
2021/03/16 03:37:48;;;;;;;211.05;191.85;;;;;;;;;;5067816;28;20086;-73
2021/03/16 03:40:32;;;;;;;215.98;196.63;;;;;;;;;;5065712;28;20055;-74
2021/03/16 03:43:18;;;;;;;210.57;191.43;;;;;;;;;;5066064;28;20051;-74
2021/03/16 03:46:02;;;;;;;218.30;199.00;;;;;;;;;;5065044;28;20466;-74
2021/03/16 03:48:47;;;;;;;212.48;193.18;;;;;;;;;;5062837;28;20098;-74
2021/03/16 03:51:32;;;;;;;214.18;194.98;;;;;;;;;;5062426;28;20046;-74
2021/03/16 03:54:16;;;;;;;213.13;193.77;;;;;;;;;;5068431;28;20105;-74
2021/03/16 03:57:02;;;;;;;216.27;196.65;;;;;;;;;;5067985;28;20089;-74
2021/03/16 03:59:47;;;;;;;215.35;196.07;;;;;;;;;;5068121;28;20068;-75
2021/03/16 04:02:31;;;;;;;203.18;184.77;;;;;;;;;;5066041;28;20122;-74
2021/03/16 04:05:15;;;;;;;213.25;194.15;;;;;;;;;;5066334;28;20055;-75
2021/03/16 04:08:01;;;;;;;210.02;191.07;;;;;;;;;;5063105;28;20562;-74
2021/03/16 04:10:46;;;;;;;212.85;193.38;;;;;;;;;;5066346;28;20035;-74
2021/03/16 04:13:30;;;;;;;217.20;197.23;;;;;;;;;;5066437;28;20101;-74
2021/03/16 04:16:15;;;;;;;213.20;193.55;;;;;;;;;;5067362;28;20519;-74
2021/03/16 04:19:00;;;;;;;217.85;198.13;;;;;;;;;;5063412;28;20043;-74
2021/03/16 04:21:43;;;;;;;208.43;189.52;;;;;;;;;;5067185;28;20136;-75
2021/03/16 04:24:28;;;;;;;215.70;196.25;;;;;;;;;;5065750;28;20044;-75
2021/03/16 04:27:12;;;;;;;213.90;194.70;;;;;;;;;;5067278;28;20044;-75
2021/03/16 04:29:56;;;;;;;213.95;194.57;;;;;;;;;;5062362;28;20404;-75
2021/03/16 04:32:40;;;;;;;204.73;186.07;;;;;;;;;;5066313;28;20397;-75
2021/03/16 04:35:24;;;;;;;214.73;195.48;;;;;;;;;;5065426;28;20048;-74
2021/03/16 04:38:08;;;;;;;211.25;191.90;;;;;;;;;;5064718;28;20131;-74
2021/03/16 04:40:52;;;;;;;219.00;199.40;;;;;;;;;;5067763;28;20603;-74
2021/03/16 04:43:40;;;;;;;216.32;196.75;;;;;;;;;;5061194;28;20047;-75
2021/03/16 04:46:25;;;;;;;213.60;194.65;;;;;;;;;;5064874;28;20047;-74
2021/03/16 04:49:09;;;;;;;208.45;189.73;;;;;;;;;;5057405;28;20105;-73
2021/03/16 04:51:52;;;;;;;210.02;191.10;;;;;;;;;;5056518;28;20047;-74
2021/03/16 04:54:37;;;;;;;219.88;200.50;;;;;;;;;;5065635;28;20086;-74
2021/03/16 04:57:20;;;;;;;212.20;192.98;;;;;;;;;;5054721;28;20074;-74
2021/03/16 05:00:05;;;;;;;205.73;186.80;;;;;;;;;;5063122;28;20074;-74
2021/03/16 05:02:49;;;;;;;217.07;197.48;;;;;;;;;;5066593;28;20543;-74
2021/03/16 05:05:33;;;;;;;215.82;196.43;;;;;;;;;;5064847;28;20163;-74
2021/03/16 05:08:17;;;;;;;211.25;192.30;;;;;;;;;;5064509;28;20059;-74
2021/03/16 05:11:01;;;;;;;210.80;192.38;;;;;;;;;;5057178;28;20114;-74
2021/03/16 05:13:45;;;;;;;209.73;191.00;;;;;;;;;;5062844;28;20075;-74
2021/03/16 05:16:31;;;;;;;213.90;195.30;;;;;;;;;;5058403;28;20044;-74
2021/03/16 05:19:14;;;;;;;209.05;190.02;;;;;;;;;;5053188;28;20102;-74
2021/03/16 05:21:59;;;;;;;216.63;197.07;;;;;;;;;;5061769;28;20048;-74
2021/03/16 05:24:42;;;;;;;216.52;196.48;;;;;;;;;;5059067;28;20099;-75
2021/03/16 05:27:26;;;;;;;212.13;193.23;;;;;;;;;;5059626;28;20090;-74
2021/03/16 05:30:10;;;;;;;209.70;190.77;;;;;;;;;;5063388;28;20123;-74
2021/03/16 05:32:55;;;;;;;203.65;185.23;;;;;;;;;;5066524;28;20109;-74
2021/03/16 05:35:39;;;;;;;195.63;177.95;;;;;;;;;;5065045;28;20087;-74
2021/03/16 05:38:23;;;;;;;195.82;178.02;;;;;;;;;;5064479;28;20047;-74
2021/03/16 05:41:08;;;;;;;189.38;172.48;;;;;;;;;;5062682;28;20039;-74
2021/03/16 05:43:52;;;;;;;189.23;172.82;;;;;;;;;;5066240;28;20106;-74
2021/03/16 05:46:36;;;;;;;184.27;167.77;;;;;;;;;;5064506;28;20044;-77
2021/03/16 05:49:22;;;;;;;188.63;171.38;;;;;;;;;;5063593;28;20050;-77
2021/03/16 05:52:06;;;;;;;179.90;163.32;;;;;;;;;;5061760;28;20044;-75
2021/03/16 05:54:54;;;;;;;178.90;163.18;;;;;;;;;;5064206;28;20090;-77
2021/03/16 05:57:38;;;;;;;178.13;162.48;;;;;;;;;;5063536;28;20082;-77
2021/03/16 06:00:22;;;;;;;183.13;167.02;;;;;;;;;;5058352;28;20059;-76
2021/03/16 06:03:07;;;;;;;180.38;164.73;;;;;;;;;;5062864;28;20072;-76
2021/03/16 06:05:51;;;;;;;175.77;160.57;;;;;;;;;;5061749;28;20824;-76
2021/03/16 06:08:35;;;;;;;177.00;160.75;;;;;;;;;;5059019;28;20083;-77
2021/03/16 06:11:19;;;;;;;174.02;157.93;;;;;;;;;;5063243;28;20797;-77
2021/03/16 06:14:03;;;;;;;168.48;152.95;;;;;;;;;;5053073;28;20039;-77
2021/03/16 06:16:47;;;;;;;166.27;151.85;;;;;;;;;;5064851;28;20078;-77
2021/03/16 06:19:33;;;;;;;176.73;160.93;;;;;;;;;;5064112;28;20557;-77
2021/03/16 06:22:18;;;;;;;167.48;152.82;;;;;;;;;;5068722;28;20043;-77
2021/03/16 06:25:03;;;;;;;166.30;151.77;;;;;;;;;;5066167;28;20125;-77
2021/03/16 06:27:57;;;;;;;167.93;153.68;;;;;;;;;;5065845;28;20589;-78
2021/03/16 06:30:42;;;;;;;164.13;150.23;;;;;;;;;;5069861;28;20642;-79
2021/03/16 06:33:27;;;;;;;157.50;144.27;;;;;;;;;;5051037;28;20400;-81
2021/03/16 06:36:11;;;;;;;157.80;143.95;;;;;;;;;;5067239;28;20097;-76
2021/03/16 06:38:56;;;;;;;159.82;146.32;;;;;;;;;;5059496;28;20047;-77
2021/03/16 06:41:40;;;;;;;160.93;146.85;;;;;;;;;;5060702;28;20044;-76
2021/03/16 06:44:24;;;;;;;164.95;150.07;;;;;;;;;;5069144;28;20094;-77
2021/03/16 06:47:12;;;;;;;158.02;144.02;;;;;;;;;;5064810;28;20498;-76
2021/03/16 06:49:56;;;;;;;163.75;149.32;;;;;;;;;;5065841;28;20035;-78
2021/03/16 06:52:47;;;;;;;152.40;138.73;;;;;;;;;;5067787;28;20043;-75
2021/03/16 06:55:31;;;;;;;156.18;142.50;;;;;;;;;;5062411;28;20044;-77
2021/03/16 06:58:14;;;;;;;172.02;156.65;;;;;;;;;;5066467;28;20097;-74
2021/03/16 07:01:02;;;;;;;168.90;153.52;;;;;;;;;;5055536;28;20046;-80
2021/03/16 07:03:47;;;;;;;158.35;144.65;;;;;;;;;;5067183;28;20516;-82
2021/03/16 07:06:31;;;;;;;155.38;142.18;;;;;;;;;;5064246;28;20069;-81
2021/03/16 07:09:16;;;;;;;149.45;136.82;;;;;;;;;;5053412;28;20573;-83
2021/03/16 07:12:01;;;;;;;159.00;145.38;;;;;;;;;;5054564;28;20901;-84
2021/03/16 07:14:45;;;;;;;159.13;145.20;;;;;;;;;;5063881;28;20114;-83
2021/03/16 07:17:29;;;;;;;155.05;141.93;;;;;;;;;;5070611;28;20043;-83
2021/03/16 07:20:14;;;;;;;163.00;149.30;;;;;;;;;;5064076;28;20526;-82
2021/03/16 07:22:59;;;;;;;156.02;142.40;;;;;;;;;;5063268;28;20089;-82
2021/03/16 07:25:43;;;;;;;158.32;144.40;;;;;;;;;;5062967;28;20043;-82
2021/03/16 07:28:28;;;;;;;157.32;143.80;;;;;;;;;;5064226;28;20044;-82
2021/03/16 07:31:15;;;;;;;155.40;142.45;;;;;;;;;;5062903;28;20071;-83
2021/03/16 07:34:05;;;;;;;150.18;137.35;;;;;;;;;;5064203;28;20074;-82
2021/03/16 07:36:49;;;;;;;159.38;145.57;;;;;;;;;;5063951;28;20093;-81
2021/03/16 07:39:33;;;;;;;152.18;138.48;;;;;;;;;;5060809;28;20039;-81
2021/03/16 07:42:17;;;;;;;143.77;132.35;;;;;;;;;;5061113;28;20048;-83
2021/03/16 07:45:01;;;;;;;144.20;132.65;;;;;;;;;;5066787;28;20074;-82
2021/03/16 07:47:44;;;;;;;150.88;138.65;;;;;;;;;;5064841;28;20211;-81
2021/03/16 07:50:30;;;;;;;151.45;138.77;;;;;;;;;;5060206;28;20638;-82
2021/03/16 07:53:23;;;;;;;144.90;132.60;;;;;;;;;;5062144;28;20459;-82
2021/03/16 07:56:08;;;;;;;143.15;131.73;;;;;;;;;;5069252;28;20875;-83
2021/03/16 07:58:52;;;;;;;147.68;135.55;;;;;;;;;;5059317;28;20458;-83
2021/03/16 08:01:46;;;;;;;143.77;131.95;;;;;;;;;;5069557;28;20150;-83
2021/03/16 08:04:38;;;;;;;142.70;130.90;;;;;;;;;;5075035;28;20101;-82
2021/03/16 08:07:23;;;;;;;134.18;123.35;;;;;;;;;;5065791;28;20071;-80
2021/03/16 08:10:09;;;;;;;142.73;131.30;;;;;;;;;;5058469;28;20056;-83
2021/03/16 08:13:02;;;;;;;131.18;121.15;;;;;;;;;;5067341;28;20578;-82
2021/03/16 08:15:48;;;;;;;131.07;121.05;;;;;;;;;;5067760;28;20118;-82
2021/03/16 08:18:34;;;;;;;135.68;124.95;;;;;;;;;;5063523;28;20693;-81
2021/03/16 08:21:18;;;;;;;134.68;124.18;;;;;;;;;;5065698;28;20036;-81
2021/03/16 08:24:03;;;;;;;131.10;121.18;;;;;;;;;;5058132;28;20105;-81
2021/03/16 08:26:51;;;;;;;126.82;117.53;;;;;;;;;;5069581;28;20498;-83
2021/03/16 08:29:35;;;;;;;137.52;126.65;;;;;;;;;;5056763;28;20080;-78
2021/03/16 08:32:20;;;;;;;132.80;122.43;;;;;;;;;;5071965;28;20237;-83
2021/03/16 08:35:04;;;;;;;129.43;119.75;;;;;;;;;;5067766;28;20054;-84
2021/03/16 08:37:50;;;;;;;117.55;108.63;;;;;;;;;;5062110;28;20043;-84
2021/03/16 08:40:34;;;;;;;138.38;127.80;;;;;;;;;;5070395;28;20499;-84
2021/03/16 08:43:21;;;;;;;129.05;119.40;;;;;;;;;;5062000;28;20043;-81
2021/03/16 08:46:05;;;;;;;126.38;116.82;;;;;;;;;;5065976;28;20103;-84
2021/03/16 08:48:49;;;;;;;122.20;113.30;;;;;;;;;;5064141;28;20118;-83
2021/03/16 08:51:33;;;;;;;120.70;111.95;;;;;;;;;;5062380;28;20039;-84
2021/03/16 08:54:24;;;;;;;129.23;119.53;;;;;;;;;;5068236;28;20050;-78
2021/03/16 08:57:08;;;;;;;126.35;116.80;;;;;;;;;;5053661;28;20098;-83
2021/03/16 08:59:53;;;;;;;117.93;109.45;;;;;;;;;;5065825;28;20506;-76
2021/03/16 09:02:39;;;;;;;122.20;113.20;;;;;;;;;;5066846;28;20064;-79
2021/03/16 09:05:27;;;;;;;124.90;115.60;;;;;;;;;;5068460;28;20071;-79
2021/03/16 09:08:11;;;;;;;124.90;115.72;;;;;;;;;;5061336;28;20102;-79
2021/03/16 09:10:55;;;;;;;127.65;117.85;;;;;;;;;;5068646;28;20052;-79
2021/03/16 09:13:39;;;;;;;118.57;110.18;;;;;;;;;;5067730;28;20465;-78
2021/03/16 09:16:24;;;;;;;120.25;111.60;;;;;;;;;;5068904;28;20166;-79
2021/03/16 09:19:09;;;;;;;120.88;112.20;;;;;;;;;;5067022;28;20372;-79
2021/03/16 09:21:56;;;;;;;110.15;102.53;;;;;;;;;;5063929;28;20519;-79
2021/03/16 09:24:41;;;;;;;115.63;107.30;;;;;;;;;;5060191;28;20043;-81
2021/03/16 09:27:25;;;;;;;111.30;103.32;;;;;;;;;;5061060;28;20519;-82
2021/03/16 09:30:10;;;;;;;112.97;104.88;;;;;;;;;;5060800;28;20051;-78
2021/03/16 09:32:55;;;;;;;112.17;103.97;;;;;;;;;;5069530;28;20098;-78
2021/03/16 09:35:39;;;;;;;110.13;102.45;;;;;;;;;;5057640;28;20134;-78
2021/03/16 09:38:23;;;;;;;119.28;110.50;;;;;;;;;;5054058;28;20098;-79
2021/03/16 09:41:09;;;;;;;105.07;97.70;;;;;;;;;;5056834;28;20132;-78
2021/03/16 09:43:37;;;;;;;97.40;91.05;;;;;;;;;;5053453;28;20055;-79
2021/03/16 09:46:06;;;;;;;108.72;101.13;;;;;;;;;;5063701;28;20043;-79
2021/03/16 09:48:32;;;;;;;116.03;107.55;;;;;;;;;;5061073;28;20103;-79
2021/03/16 09:50:59;;;;;;;108.28;100.75;;;;;;;;;;5068582;28;20095;-78
2021/03/16 09:53:25;;;;;;;101.60;94.68;;;;;;;;;;5053863;28;20036;-80
2021/03/16 09:55:57;;;;;;;112.75;104.70;;;;;;;;;;5059395;28;20783;-80
2021/03/16 09:58:23;;;;;;;96.57;90.10;;;;;;;;;;5054547;28;20047;-80
2021/03/16 10:00:48;;;;;;;101.57;94.50;;;;;;;;;;5067835;28;20099;-80
2021/03/16 10:03:15;;;;;;;100.55;93.45;;;;;;;;;;5064719;28;20076;-79
2021/03/16 10:05:40;;;;;;;102.43;95.63;;;;;;;;;;5057206;28;20127;-79
2021/03/16 10:08:06;;;;;;;91.40;85.40;;;;;;;;;;5055437;28;20493;-80
2021/03/16 10:10:33;;;;;;;101.45;94.45;;;;;;;;;;5057894;28;20458;-80
2021/03/16 10:13:02;;;;;;;110.25;102.47;;;;;;;;;;5056910;28;20062;-79
2021/03/16 10:15:31;;;;;;;95.40;89.07;;;;;;;;;;5062558;28;20016;-79
2021/03/16 10:18:00;;;;;;;109.18;101.55;;;;;;;;;;5057423;28;20035;-79
2021/03/16 10:20:39;;;;;;;83.18;77.25;;;;;;;;;;5058018;28;20048;-79
2021/03/16 10:23:05;;;;;;;88.97;82.93;;;;;;;;;;5067277;28;20093;-78
2021/03/16 10:25:31;;;;;;;82.60;77.10;;;;;;;;;;5065078;28;20029;-79
2021/03/16 10:27:59;;;;;;;75.75;70.90;;;;;;;;;;5065169;28;20052;-79
2021/03/16 10:30:39;;;;;;;82.15;76.75;;;;;;;;;;5066117;28;20107;-79
2021/03/16 10:33:05;;;;;;;97.70;91.25;;;;;;;;;;5063329;28;20040;-79
2021/03/16 10:35:32;;;;;;;88.95;82.90;;;;;;;;;;5060575;28;20439;-79
2021/03/16 10:37:58;;;;;;;87.20;81.50;;;;;;;;;;5062327;28;20555;-80
2021/03/16 10:40:24;;;;;;;77.88;72.82;;;;;;;;;;5063906;28;20024;-79
2021/03/16 10:42:49;;;;;;;76.53;71.47;;;;;;;;;;5062757;28;20677;-79
2021/03/16 10:45:15;;;;;;;92.53;86.43;;;;;;;;;;5064532;28;20066;-80
2021/03/16 10:47:40;;;;;;;92.22;86.03;;;;;;;;;;5067022;28;20024;-80
2021/03/16 10:50:06;;;;;;;80.78;75.32;;;;;;;;;;5064761;28;20021;-79
2021/03/16 10:52:32;;;;;;;77.18;72.18;;;;;;;;;;5059448;28;20090;-80
2021/03/16 10:54:57;;;;;;;92.47;86.40;;;;;;;;;;5065890;28;20021;-79
2021/03/16 10:57:22;;;;;;;65.20;61.03;;;;;;;;;;5064589;28;20484;-79
2021/03/16 10:59:48;;;;;;;62.47;58.47;;;;;;;;;;5062698;28;20052;-79
2021/03/16 11:02:14;;;;;;;78.88;73.43;;;;;;;;;;5058287;28;20032;-78
2021/03/16 11:04:40;;;;;;;70.95;66.20;;;;;;;;;;5068346;28;20456;-78
2021/03/16 11:07:05;;;;;;;73.47;68.75;;;;;;;;;;5062954;28;20048;-78
2021/03/16 11:09:30;;;;;;;74.63;69.85;;;;;;;;;;5067305;28;20048;-79
2021/03/16 11:11:56;;;;;;;70.45;65.90;;;;;;;;;;5060276;28;20064;-79
2021/03/16 11:14:21;;;;;;;73.45;68.72;;;;;;;;;;5065618;28;20388;-79
2021/03/16 11:16:47;;;;;;;76.38;71.38;;;;;;;;;;5065740;28;20033;-79
2021/03/16 11:19:13;;;;;;;68.18;63.67;;;;;;;;;;5059725;28;20033;-78
2021/03/16 11:21:38;;;;;;;74.25;69.13;;;;;;;;;;5065943;28;20047;-80
2021/03/16 11:24:04;;;;;;;70.18;65.57;;;;;;;;;;5060285;28;20041;-79
2021/03/16 11:26:30;;;;;;;74.05;68.72;;;;;;;;;;5070947;28;20033;-78
2021/03/16 11:28:55;;;;;;;70.72;65.82;;;;;;;;;;5058723;28;20031;-77
2021/03/16 11:31:20;;;;;;;64.13;60.03;;;;;;;;;;5058644;28;20028;-78
2021/03/16 11:34:04;;;;;;;66.35;62.00;;;;;;;;;;5054797;28;20040;-79
2021/03/16 11:36:48;;;;;;;63.53;59.38;;;;;;;;;;5067695;28;20407;-74
2021/03/16 11:39:32;;;;;;;61.72;57.80;;;;;;;;;;5057885;28;20047;-79
2021/03/16 11:42:17;;;;;;;65.90;61.60;;;;;;;;;;5059824;28;20503;-79
2021/03/16 11:45:01;;;;;;;64.88;60.42;;;;;;;;;;5063656;28;20048;-79
2021/03/16 11:47:44;;;;;;;78.68;73.55;;;;;;;;;;5060327;28;20060;-79
2021/03/16 11:50:29;;;;;;;62.10;58.17;;;;;;;;;;5066012;28;20048;-79
2021/03/16 11:53:12;;;;;;;69.32;64.82;;;;;;;;;;5055881;28;20047;-79
2021/03/16 11:55:57;;;;;;;71.50;66.80;;;;;;;;;;5065245;28;20085;-79
2021/03/16 11:58:41;;;;;;;64.85;60.75;;;;;;;;;;5065914;28;20040;-79
2021/03/16 12:01:25;;;;;;;71.20;66.30;;;;;;;;;;5055458;28;20098;-79
2021/03/16 12:04:09;;;;;;;70.28;65.28;;;;;;;;;;5052997;28;20453;-79
2021/03/16 12:06:53;;;;;;;93.43;86.72;;;;;;;;;;5052539;28;20052;-79
2021/03/16 12:09:37;;;;;;;77.70;72.55;;;;;;;;;;5058074;28;20397;-79
2021/03/16 12:12:21;;;;;;;69.47;64.97;;;;;;;;;;5060785;28;20035;-80
2021/03/16 12:15:09;;;;;;;74.43;69.57;;;;;;;;;;5066549;28;20055;-80
2021/03/16 12:17:53;;;;;;;79.18;74.00;;;;;;;;;;5061225;28;20799;-80
2021/03/16 12:20:37;;;;;;;65.57;60.83;;;;;;;;;;5056440;28;20594;-80
2021/03/16 12:23:21;;;;;;;66.88;62.45;;;;;;;;;;5071239;28;20059;-79
2021/03/16 12:26:05;;;;;;;58.53;54.83;;;;;;;;;;5062262;28;20365;-79
2021/03/16 12:28:49;;;;;;;64.32;60.13;;;;;;;;;;5060503;28;20103;-79
2021/03/16 12:31:33;;;;;;;59.70;55.83;;;;;;;;;;5078595;28;20060;-79
2021/03/16 12:34:18;;;;;;;59.28;55.47;;;;;;;;;;5054830;28;20475;-79
2021/03/16 12:37:01;;;;;;;59.63;55.80;;;;;;;;;;5059400;28;20443;-79
2021/03/16 12:39:45;;;;;;;73.72;68.85;;;;;;;;;;5060901;28;20145;-79
2021/03/16 12:42:33;;;;;;;60.58;56.22;;;;;;;;;;5058975;28;20178;-80
2021/03/16 12:45:17;;;;;;;56.92;53.25;;;;;;;;;;5066371;28;20086;-81
2021/03/16 12:48:02;;;;;;;55.20;51.70;;;;;;;;;;5054039;28;20065;-81
2021/03/16 12:50:46;;;;;;;65.68;61.08;;;;;;;;;;5062899;28;20051;-81
2021/03/16 12:53:30;;;;;;;60.25;56.35;;;;;;;;;;5063080;28;20044;-81
2021/03/16 12:56:14;;;;;;;63.15;59.15;;;;;;;;;;5068906;28;20644;-80
2021/03/16 12:58:58;;;;;;;75.75;70.85;;;;;;;;;;5065094;28;20077;-81
2021/03/16 13:01:42;;;;;;;76.60;71.13;;;;;;;;;;5063489;28;20054;-81
2021/03/16 13:04:27;;;;;;;62.42;58.22;;;;;;;;;;5065368;28;20123;-81
2021/03/16 13:07:11;;;;;;;66.28;61.97;;;;;;;;;;5067519;28;20238;-80
2021/03/16 13:09:55;;;;;;;63.03;58.92;;;;;;;;;;5067645;28;20583;-80
2021/03/16 13:12:39;;;;;;;58.22;54.15;;;;;;;;;;5065295;28;20036;-81
2021/03/16 13:15:23;;;;;;;61.67;57.42;;;;;;;;;;5068532;28;20158;-81
2021/03/16 13:18:07;;;;;;;58.47;54.60;;;;;;;;;;5065421;28;20677;-80
2021/03/16 13:20:51;;;;;;;61.75;57.75;;;;;;;;;;5068167;28;20067;-81
2021/03/16 13:23:35;;;;;;;55.90;52.30;;;;;;;;;;5060631;28;20102;-81
2021/03/16 13:26:19;;;;;;;69.15;64.65;;;;;;;;;;5062607;28;20126;-79
2021/03/16 13:29:04;;;;;;;63.92;59.65;;;;;;;;;;5051438;28;20105;-80
2021/03/16 13:31:48;;;;;;;58.33;54.50;;;;;;;;;;5069076;28;20031;-80
2021/03/16 13:34:32;;;;;;;63.97;59.80;;;;;;;;;;5060268;28;20977;-80
2021/03/16 13:37:17;;;;;;;57.60;53.60;;;;;;;;;;5055830;28;20055;-80
2021/03/16 13:40:01;;;;;;;57.20;53.38;;;;;;;;;;5063321;28;20105;-80
2021/03/16 13:42:45;;;;;;;63.83;59.72;;;;;;;;;;5060035;28;20121;-82
2021/03/16 13:45:29;;;;;;;61.15;57.00;;;;;;;;;;5054792;28;20093;-82
2021/03/16 13:48:13;;;;;;;56.22;52.58;;;;;;;;;;5054099;28;20048;-81
2021/03/16 13:50:57;;;;;;;77.82;72.78;;;;;;;;;;5054148;28;20044;-82
2021/03/16 13:53:41;;;;;;;59.30;55.40;;;;;;;;;;5058324;28;20044;-81
2021/03/16 13:56:25;;;;;;;62.55;57.95;;;;;;;;;;5057464;28;20408;-81
2021/03/16 13:59:09;;;;;;;69.30;64.72;;;;;;;;;;5061318;28;20110;-81
2021/03/16 14:01:52;;;;;;;67.70;63.22;;;;;;;;;;5061060;28;20055;-81
2021/03/16 14:04:37;;;;;;;62.63;58.53;;;;;;;;;;5059039;28;20097;-81
2021/03/16 14:07:20;;;;;;;61.58;57.50;;;;;;;;;;5060735;28;20545;-81
2021/03/16 14:10:06;;;;;;;71.68;66.95;;;;;;;;;;5061756;28;20054;-80
2021/03/16 14:12:49;;;;;;;60.47;56.58;;;;;;;;;;5059745;28;20113;-81
2021/03/16 14:15:34;;;;;;;68.63;64.20;;;;;;;;;;5061975;28;20040;-75
2021/03/16 14:18:17;;;;;;;59.08;54.75;;;;;;;;;;5063857;28;20480;-75
2021/03/16 14:21:02;;;;;;;58.33;54.53;;;;;;;;;;5072432;28;20075;-76
2021/03/16 14:23:46;;;;;;;87.22;80.53;;;;;;;;;;5061835;28;20479;-75
2021/03/16 14:26:30;;;;;;;105.13;97.10;;;;;;;;;;5063872;28;20055;-75
2021/03/16 14:29:14;;;;;;;92.78;85.57;;;;;;;;;;5069185;28;20598;-75
2021/03/16 14:31:58;;;;;;;86.97;80.15;;;;;;;;;;5058250;28;20086;-75
2021/03/16 14:34:42;;;;;;;81.55;75.78;;;;;;;;;;5064336;28;20516;-74
2021/03/16 14:37:26;;;;;;;69.38;64.65;;;;;;;;;;5063270;28;20078;-74
2021/03/16 14:40:12;;;;;;;72.95;67.80;;;;;;;;;;5058638;28;20086;-74
2021/03/16 14:42:56;;;;;;;;;;;;;;;;;;5060228;28;20093;-74
2021/03/16 14:45:40;;;;;;;61.88;57.78;;;;;;;;;;5064035;28;19919;-75
2021/03/16 14:48:24;;;;;;;61.92;57.20;;;;;;;;;;5064648;28;20043;-74
2021/03/16 14:51:08;;;;;;;72.88;67.28;;;;;;;;;;5062349;28;20419;-75
2021/03/16 14:53:52;;;;;;;87.30;80.70;;;;;;;;;;5057298;28;20048;-75
2021/03/16 14:56:36;;;;;;;73.13;67.68;;;;;;;;;;5066869;28;20093;-74
2021/03/16 14:59:20;;;;;;;76.28;71.00;;;;;;;;;;5061744;28;20121;-75
2021/03/16 15:02:04;;;;;;;82.05;76.65;;;;;;;;;;5060263;28;20792;-74
2021/03/16 15:04:48;;;;;;;72.35;67.70;;;;;;;;;;5065668;28;20058;-74
2021/03/16 15:07:32;;;;;;;74.22;69.00;;;;;;;;;;5056369;28;20055;-75
2021/03/16 15:10:16;;;;;;;70.18;65.47;;;;;;;;;;5058582;28;20059;-74
2021/03/16 15:12:59;;;;;;;63.15;58.50;;;;;;;;;;5056568;28;20052;-75